Terminal Aerodrome Forecast
Issued by NWS

Home | Current Version | Previous Version | Text Only | Print | Product List | Glossary On
Versions: 1 2 3 4 5 6 7 8 9 10 11 12
000
FTUS45 KSLC 220529
TAFOGD
TAF
KOGD 220529Z 2206/2306 17006KT P6SM BKN060 BKN200
     FM220800 17006KT P6SM FEW100 BKN200
     FM221800 25006KT P6SM SCT200
     FM230200 17005KT P6SM BKN200=

USA.gov is the U.S. government's official web portal to all federal, state and local government web resources and services.